DLH595 DNAA-EDDF
Flight info
| Callsign | DLH595 |
|---|---|
| Flight time | 5h 40m |
| Altitude | 39000 |
| Route | OXORU1Q OXORU DCT MIMBA/N0458F400 UA604 AS UR978 CSO UA605 CIRTA DCT ERETI DCT OMARD DCT NOSTA DCT NOPMU DCT ABESI DCT LADOL T163 EMPAX EMPAX5B |
| Aircraft | A343/H-SDE2E3FGHIJ3J5M1P2RWXYZ/LB1D1 |
Departure
| Time | 2026-05-04 12:09 |
|---|---|
| Airport | Nnamdi Azikiwe International Airport (DNAA) |
Arrival
| Time | 2026-05-04 17:49 |
|---|---|
| Airport | Frankfurt Main Airport (EDDF) |
| Time | Latitude | Longitude | Altitude | Speed | Heading |
|---|---|---|---|---|---|
| 2026-05-04 11:55 | 9.00571 | 7.26755 | 1138 ft | 0 kts | 360° |
| 2026-05-04 12:00 | 9.00567 | 7.26755 | 1130 ft | 2 kts | 359° |
| 2026-05-04 12:00 | 9.00548 | 7.26755 | 1132 ft | 3 kts | 355° |
| 2026-05-04 12:00 | 9.00528 | 7.26758 | 1134 ft | 3 kts | 348° |
| 2026-05-04 12:00 | 9.00508 | 7.26763 | 1133 ft | 3 kts | 337° |
| 2026-05-04 12:01 | 9.00491 | 7.26772 | 1136 ft | 3 kts | 313° |
| 2026-05-04 12:01 | 9.00483 | 7.26785 | 1136 ft | 2 kts | 261° |
| 2026-05-04 12:02 | 9.00483 | 7.26789 | 1137 ft | 0 kts | 250° |
| 2026-05-04 12:03 | 9.00481 | 7.26783 | 1137 ft | 3 kts | 250° |
| 2026-05-04 12:03 | 9.00470 | 7.26750 | 1136 ft | 7 kts | 250° |
| 2026-05-04 12:03 | 9.00446 | 7.26690 | 1134 ft | 11 kts | 251° |
| 2026-05-04 12:04 | 9.00487 | 7.26621 | 1118 ft | 15 kts | 324° |
| 2026-05-04 12:04 | 9.00580 | 7.26541 | 1116 ft | 20 kts | 309° |
| 2026-05-04 12:04 | 9.00687 | 7.26525 | 1119 ft | 10 kts | 36° |
| 2026-05-04 12:04 | 9.00744 | 7.26567 | 1114 ft | 11 kts | 35° |
| 2026-05-04 12:05 | 9.00810 | 7.26614 | 1115 ft | 12 kts | 35° |
| 2026-05-04 12:05 | 9.00885 | 7.26667 | 1122 ft | 14 kts | 35° |
| 2026-05-04 12:05 | 9.00982 | 7.26735 | 1116 ft | 19 kts | 36° |
| 2026-05-04 12:05 | 9.01094 | 7.26815 | 1116 ft | 20 kts | 35° |
| 2026-05-04 12:06 | 9.01209 | 7.26896 | 1136 ft | 20 kts | 35° |
| 2026-05-04 12:06 | 9.01329 | 7.26980 | 1136 ft | 21 kts | 35° |
| 2026-05-04 12:06 | 9.01450 | 7.27066 | 1136 ft | 21 kts | 35° |
| 2026-05-04 12:06 | 9.01569 | 7.27150 | 1136 ft | 21 kts | 35° |
| 2026-05-04 12:07 | 9.01693 | 7.27238 | 1136 ft | 22 kts | 34° |
| 2026-05-04 12:07 | 9.01812 | 7.27323 | 1138 ft | 18 kts | 36° |
| 2026-05-04 12:07 | 9.01922 | 7.27353 | 1133 ft | 16 kts | 334° |
| 2026-05-04 12:07 | 9.01975 | 7.27263 | 1136 ft | 14 kts | 270° |
| 2026-05-04 12:08 | 9.01920 | 7.27194 | 1138 ft | 13 kts | 216° |
| 2026-05-04 12:08 | 9.01826 | 7.27126 | 1137 ft | 31 kts | 215° |
| 2026-05-04 12:08 | 9.01475 | 7.26878 | 1134 ft | 91 kts | 215° |
| 2026-05-04 12:08 | 9.00811 | 7.26409 | 1109 ft | 140 kts | 215° |
| 2026-05-04 12:09 | 8.99907 | 7.25768 | 1269 ft | 169 kts | 215° |
| 2026-05-04 12:09 | 8.98969 | 7.25093 | 1852 ft | 167 kts | 214° |
| 2026-05-04 12:09 | 8.98310 | 7.24073 | 2240 ft | 189 kts | 259° |
| 2026-05-04 12:09 | 8.98626 | 7.22737 | 2551 ft | 217 kts | 303° |
| 2026-05-04 12:10 | 8.99905 | 7.21772 | 2913 ft | 244 kts | 338° |
| 2026-05-04 12:10 | 9.01494 | 7.21149 | 3809 ft | 243 kts | 338° |
| 2026-05-04 12:10 | 9.03043 | 7.20468 | 4766 ft | 243 kts | 335° |
| 2026-05-04 12:10 | 9.04565 | 7.19706 | 5634 ft | 244 kts | 334° |
| 2026-05-04 12:11 | 9.06070 | 7.18892 | 6459 ft | 245 kts | 333° |
| 2026-05-04 12:11 | 9.07559 | 7.18049 | 7249 ft | 247 kts | 333° |
| 2026-05-04 12:11 | 9.09068 | 7.17177 | 7972 ft | 253 kts | 333° |
| 2026-05-04 12:11 | 9.10602 | 7.16278 | 8726 ft | 257 kts | 333° |
| 2026-05-04 12:12 | 9.12152 | 7.15363 | 9510 ft | 259 kts | 334° |
| 2026-05-04 12:12 | 9.13734 | 7.14465 | 10256 ft | 261 kts | 340° |
| 2026-05-04 12:12 | 9.15466 | 7.14039 | 10921 ft | 256 kts | 5° |
| 2026-05-04 12:12 | 9.17252 | 7.14352 | 11357 ft | 269 kts | 20° |
| 2026-05-04 12:13 | 9.19098 | 7.14961 | 11656 ft | 289 kts | 22° |
| 2026-05-04 12:14 | 9.34467 | 7.20051 | 15139 ft | 354 kts | 20° |
| 2026-05-04 12:15 | 9.36827 | 7.20822 | 15730 ft | 359 kts | 20° |
| 2026-05-04 12:15 | 9.39219 | 7.21603 | 16333 ft | 363 kts | 20° |
| 2026-05-04 12:15 | 9.41667 | 7.22403 | 16959 ft | 367 kts | 20° |
| 2026-05-04 12:15 | 9.44109 | 7.23201 | 17577 ft | 371 kts | 20° |
| 2026-05-04 12:16 | 9.46540 | 7.23995 | 18180 ft | 374 kts | 20° |
| 2026-05-04 12:16 | 9.49031 | 7.24809 | 18680 ft | 379 kts | 20° |
| 2026-05-04 12:16 | 9.51556 | 7.25635 | 19164 ft | 383 kts | 20° |
| 2026-05-04 12:16 | 9.54111 | 7.26470 | 19633 ft | 388 kts | 19° |
| 2026-05-04 12:17 | 9.56699 | 7.27316 | 20101 ft | 393 kts | 19° |
| 2026-05-04 12:17 | 9.59349 | 7.28183 | 20587 ft | 397 kts | 19° |
| 2026-05-04 12:17 | 9.61959 | 7.29037 | 21050 ft | 402 kts | 19° |
| 2026-05-04 12:17 | 9.64635 | 7.29912 | 21534 ft | 405 kts | 19° |
| 2026-05-04 12:18 | 9.67331 | 7.30794 | 21994 ft | 409 kts | 19° |
| 2026-05-04 12:18 | 9.70054 | 7.31685 | 22467 ft | 413 kts | 19° |
| 2026-05-04 12:18 | 9.72804 | 7.32585 | 22902 ft | 417 kts | 18° |
| 2026-05-04 12:18 | 9.75582 | 7.33494 | 23291 ft | 423 kts | 18° |
| 2026-05-04 12:19 | 9.78391 | 7.34414 | 23717 ft | 426 kts | 18° |
| 2026-05-04 12:19 | 9.81224 | 7.35342 | 24104 ft | 429 kts | 18° |
| 2026-05-04 12:19 | 9.84066 | 7.36273 | 24508 ft | 431 kts | 18° |
| 2026-05-04 12:19 | 9.86931 | 7.37211 | 24899 ft | 434 kts | 18° |
| 2026-05-04 12:20 | 9.89812 | 7.38138 | 25297 ft | 436 kts | 17° |
| 2026-05-04 12:20 | 9.92721 | 7.39052 | 25675 ft | 439 kts | 17° |
| 2026-05-04 12:20 | 9.95648 | 7.39964 | 26063 ft | 441 kts | 17° |
| 2026-05-04 12:20 | 9.98595 | 7.40881 | 26443 ft | 444 kts | 17° |
| 2026-05-04 12:21 | 10.01545 | 7.41801 | 26802 ft | 446 kts | 17° |
| 2026-05-04 12:21 | 10.04519 | 7.42731 | 27159 ft | 449 kts | 17° |
| 2026-05-04 12:21 | 10.07513 | 7.43669 | 27531 ft | 451 kts | 17° |
| 2026-05-04 12:21 | 10.10518 | 7.44613 | 27884 ft | 454 kts | 17° |
| 2026-05-04 12:22 | 10.13539 | 7.45564 | 28239 ft | 456 kts | 16° |
| 2026-05-04 12:22 | 10.16569 | 7.46517 | 28644 ft | 456 kts | 16° |
| 2026-05-04 12:22 | 10.19611 | 7.47474 | 28941 ft | 460 kts | 15° |
| 2026-05-04 12:22 | 10.22676 | 7.48438 | 29247 ft | 462 kts | 16° |
| 2026-05-04 12:23 | 10.25755 | 7.49406 | 29534 ft | 465 kts | 15° |
| 2026-05-04 12:23 | 10.28857 | 7.50383 | 29840 ft | 468 kts | 15° |
| 2026-05-04 12:23 | 10.31970 | 7.51362 | 30114 ft | 470 kts | 15° |
| 2026-05-04 12:23 | 10.35102 | 7.52348 | 30364 ft | 472 kts | 16° |
| 2026-05-04 12:24 | 10.38246 | 7.53339 | 30622 ft | 474 kts | 15° |
| 2026-05-04 12:24 | 10.41404 | 7.54333 | 30897 ft | 475 kts | 15° |
| 2026-05-04 12:24 | 10.44565 | 7.55329 | 31142 ft | 477 kts | 15° |
| 2026-05-04 12:24 | 10.47742 | 7.56330 | 31395 ft | 479 kts | 15° |
| 2026-05-04 12:25 | 10.50936 | 7.57337 | 31618 ft | 481 kts | 15° |
| 2026-05-04 12:25 | 10.54141 | 7.58348 | 31865 ft | 483 kts | 15° |
| 2026-05-04 12:25 | 10.57343 | 7.59358 | 32220 ft | 481 kts | 15° |
| 2026-05-04 12:25 | 10.60493 | 7.60352 | 32588 ft | 479 kts | 15° |
| 2026-05-04 12:26 | 10.63672 | 7.61355 | 32939 ft | 478 kts | 15° |
| 2026-05-04 12:26 | 10.66842 | 7.62355 | 33287 ft | 476 kts | 15° |
| 2026-05-04 12:26 | 10.70001 | 7.63352 | 33617 ft | 476 kts | 15° |
| 2026-05-04 12:26 | 10.73158 | 7.64349 | 33928 ft | 475 kts | 15° |
| 2026-05-04 12:27 | 10.76312 | 7.65344 | 34189 ft | 474 kts | 15° |
| 2026-05-04 12:27 | 10.79459 | 7.66338 | 34428 ft | 474 kts | 15° |
| 2026-05-04 12:27 | 10.82611 | 7.67334 | 34672 ft | 474 kts | 15° |
| 2026-05-04 12:27 | 10.85756 | 7.68328 | 34924 ft | 473 kts | 15° |
| 2026-05-04 12:28 | 10.87835 | 7.68984 | 35092 ft | 473 kts | 15° |
| 2026-05-04 12:28 | 10.90975 | 7.69977 | 35338 ft | 472 kts | 15° |
| 2026-05-04 12:28 | 10.94116 | 7.70970 | 35574 ft | 472 kts | 15° |
| 2026-05-04 12:28 | 10.97250 | 7.71961 | 35798 ft | 472 kts | 15° |
| 2026-05-04 12:29 | 11.00382 | 7.72952 | 36025 ft | 471 kts | 15° |
| 2026-05-04 12:29 | 11.03516 | 7.73944 | 36248 ft | 471 kts | 15° |
| 2026-05-04 12:29 | 11.06645 | 7.74933 | 36467 ft | 471 kts | 15° |
| 2026-05-04 12:29 | 11.09776 | 7.75924 | 36683 ft | 471 kts | 15° |
| 2026-05-04 12:30 | 11.12902 | 7.76914 | 36900 ft | 470 kts | 15° |
| 2026-05-04 12:30 | 11.16027 | 7.77903 | 37122 ft | 470 kts | 15° |
| 2026-05-04 12:30 | 11.19148 | 7.78891 | 37318 ft | 470 kts | 15° |
| 2026-05-04 12:30 | 11.22264 | 7.79878 | 37510 ft | 470 kts | 14° |
| 2026-05-04 12:31 | 11.25390 | 7.80869 | 37679 ft | 470 kts | 14° |
| 2026-05-04 12:31 | 11.28511 | 7.81858 | 37871 ft | 470 kts | 14° |
| 2026-05-04 12:31 | 11.31636 | 7.82848 | 38061 ft | 470 kts | 14° |
| 2026-05-04 12:31 | 11.34757 | 7.83838 | 38260 ft | 469 kts | 14° |
| 2026-05-04 12:32 | 11.37878 | 7.84828 | 38427 ft | 469 kts | 14° |
| 2026-05-04 12:32 | 11.44109 | 7.86805 | 38748 ft | 469 kts | 14° |
| 2026-05-04 12:32 | 11.47221 | 7.87792 | 38867 ft | 469 kts | 14° |
| 2026-05-04 12:33 | 11.50347 | 7.88784 | 38882 ft | 472 kts | 14° |
| 2026-05-04 12:33 | 11.56598 | 7.90769 | 38874 ft | 469 kts | 14° |
| 2026-05-04 12:34 | 11.62777 | 7.92733 | 38877 ft | 468 kts | 14° |
| 2026-05-04 12:34 | 11.69001 | 7.94711 | 38870 ft | 468 kts | 14° |
| 2026-05-04 12:35 | 11.75228 | 7.96691 | 38869 ft | 469 kts | 14° |
| 2026-05-04 12:35 | 11.81455 | 7.98671 | 38864 ft | 469 kts | 14° |
| 2026-05-04 12:36 | 11.87688 | 8.00655 | 38868 ft | 469 kts | 14° |
| 2026-05-04 12:36 | 11.93923 | 8.02641 | 38858 ft | 469 kts | 14° |
| 2026-05-04 12:37 | 12.00154 | 8.04626 | 38859 ft | 469 kts | 14° |
| 2026-05-04 12:37 | 12.06382 | 8.06611 | 38848 ft | 469 kts | 14° |
| 2026-05-04 12:38 | 12.12607 | 8.08596 | 38855 ft | 469 kts | 14° |
| 2026-05-04 12:38 | 12.18795 | 8.10571 | 38852 ft | 469 kts | 14° |
| 2026-05-04 12:39 | 12.25023 | 8.12559 | 38851 ft | 469 kts | 14° |
| 2026-05-04 12:39 | 12.31250 | 8.14547 | 38851 ft | 469 kts | 14° |
| 2026-05-04 12:40 | 12.37467 | 8.16534 | 38844 ft | 468 kts | 14° |
| 2026-05-04 12:40 | 12.43685 | 8.18522 | 38846 ft | 468 kts | 14° |
| 2026-05-04 12:41 | 12.49900 | 8.20509 | 38846 ft | 468 kts | 14° |
| 2026-05-04 12:41 | 12.56113 | 8.22498 | 38833 ft | 468 kts | 14° |
| 2026-05-04 12:42 | 12.62324 | 8.24486 | 38841 ft | 468 kts | 14° |
| 2026-05-04 12:42 | 12.68542 | 8.26478 | 38842 ft | 470 kts | 13° |
| 2026-05-04 12:43 | 12.74804 | 8.28484 | 38845 ft | 472 kts | 13° |
| 2026-05-04 12:43 | 12.81084 | 8.30498 | 38844 ft | 473 kts | 13° |
| 2026-05-04 12:44 | 12.87366 | 8.32514 | 38842 ft | 473 kts | 13° |
| 2026-05-04 12:44 | 12.93645 | 8.34530 | 38836 ft | 473 kts | 13° |
| 2026-05-04 12:45 | 12.99913 | 8.36544 | 38839 ft | 471 kts | 13° |
| 2026-05-04 12:45 | 13.06182 | 8.38439 | 38837 ft | 466 kts | 7° |
| 2026-05-04 12:46 | 13.12565 | 8.38821 | 39072 ft | 457 kts | 352° |
| 2026-05-04 12:46 | 13.15733 | 8.38613 | 39192 ft | 456 kts | 351° |
| 2026-05-04 12:46 | 13.18889 | 8.38339 | 39325 ft | 455 kts | 350° |
| 2026-05-04 12:46 | 13.22003 | 8.38036 | 39451 ft | 455 kts | 350° |
| 2026-05-04 12:47 | 13.25155 | 8.37721 | 39582 ft | 455 kts | 350° |
| 2026-05-04 12:47 | 13.28302 | 8.37408 | 39718 ft | 454 kts | 350° |
| 2026-05-04 12:47 | 13.31451 | 8.37101 | 39831 ft | 455 kts | 350° |
| 2026-05-04 12:48 | 13.37799 | 8.36495 | 39838 ft | 461 kts | 350° |
| 2026-05-04 12:48 | 13.44222 | 8.35893 | 39835 ft | 464 kts | 350° |
| 2026-05-04 12:49 | 13.50645 | 8.35296 | 39837 ft | 463 kts | 350° |
| 2026-05-04 12:49 | 13.57059 | 8.34698 | 39830 ft | 463 kts | 350° |
| 2026-05-04 12:50 | 13.63471 | 8.34098 | 39836 ft | 463 kts | 350° |
| 2026-05-04 12:50 | 13.69884 | 8.33497 | 39836 ft | 463 kts | 350° |
| 2026-05-04 12:51 | 13.76297 | 8.32896 | 39826 ft | 463 kts | 350° |
| 2026-05-04 12:51 | 13.82719 | 8.32296 | 39839 ft | 464 kts | 350° |
| 2026-05-04 12:52 | 13.89106 | 8.31692 | 39833 ft | 464 kts | 350° |
| 2026-05-04 12:52 | 13.95575 | 8.31081 | 39839 ft | 464 kts | 350° |
| 2026-05-04 12:53 | 14.01955 | 8.30480 | 39837 ft | 464 kts | 350° |
| 2026-05-04 12:53 | 14.08381 | 8.29875 | 39841 ft | 464 kts | 349° |
| 2026-05-04 12:54 | 14.14810 | 8.29269 | 39827 ft | 464 kts | 349° |
| 2026-05-04 12:54 | 14.21246 | 8.28661 | 39832 ft | 465 kts | 349° |
| 2026-05-04 12:55 | 14.27687 | 8.28053 | 39833 ft | 465 kts | 349° |
| 2026-05-04 12:55 | 14.34131 | 8.27444 | 39824 ft | 465 kts | 349° |
| 2026-05-04 12:56 | 14.40571 | 8.26836 | 39835 ft | 465 kts | 349° |
| 2026-05-04 12:56 | 14.47011 | 8.26227 | 39831 ft | 465 kts | 349° |
| 2026-05-04 12:57 | 14.53457 | 8.25617 | 39837 ft | 465 kts | 349° |
| 2026-05-04 12:57 | 14.59898 | 8.25007 | 39837 ft | 465 kts | 349° |
| 2026-05-04 12:58 | 14.66343 | 8.24396 | 39834 ft | 465 kts | 349° |
| 2026-05-04 12:58 | 14.72769 | 8.23788 | 39837 ft | 462 kts | 349° |
| 2026-05-04 12:59 | 14.79126 | 8.23186 | 39831 ft | 461 kts | 349° |
| 2026-05-04 12:59 | 14.85523 | 8.22577 | 39830 ft | 462 kts | 349° |
| 2026-05-04 13:00 | 14.91925 | 8.21968 | 39830 ft | 462 kts | 349° |
| 2026-05-04 13:00 | 14.98335 | 8.21360 | 39829 ft | 463 kts | 349° |
| 2026-05-04 13:01 | 15.04747 | 8.20750 | 39828 ft | 463 kts | 349° |
| 2026-05-04 13:01 | 15.11153 | 8.20145 | 39826 ft | 462 kts | 349° |
| 2026-05-04 13:02 | 15.17559 | 8.19538 | 39826 ft | 462 kts | 349° |
| 2026-05-04 13:02 | 15.23963 | 8.18930 | 39826 ft | 461 kts | 349° |
| 2026-05-04 13:03 | 15.30358 | 8.18322 | 39824 ft | 461 kts | 349° |
| 2026-05-04 13:03 | 15.36747 | 8.17715 | 39821 ft | 461 kts | 349° |
| 2026-05-04 13:04 | 15.43137 | 8.17108 | 39820 ft | 461 kts | 349° |
| 2026-05-04 13:04 | 15.49484 | 8.16505 | 39830 ft | 461 kts | 349° |
| 2026-05-04 13:05 | 15.55863 | 8.15899 | 39821 ft | 460 kts | 349° |
| 2026-05-04 13:05 | 15.62226 | 8.15293 | 39821 ft | 459 kts | 349° |
| 2026-05-04 13:06 | 15.68582 | 8.14687 | 39819 ft | 459 kts | 349° |
| 2026-05-04 13:06 | 15.74943 | 8.14081 | 39821 ft | 459 kts | 349° |
| 2026-05-04 13:07 | 15.81302 | 8.13474 | 39821 ft | 459 kts | 349° |
| 2026-05-04 13:07 | 15.87668 | 8.12866 | 39823 ft | 460 kts | 350° |
| 2026-05-04 13:08 | 15.94083 | 8.12251 | 39823 ft | 466 kts | 350° |
| 2026-05-04 13:08 | 16.00545 | 8.11634 | 39824 ft | 466 kts | 350° |
| 2026-05-04 13:09 | 16.07008 | 8.11018 | 39820 ft | 466 kts | 350° |
| 2026-05-04 13:09 | 16.13463 | 8.10401 | 39821 ft | 466 kts | 350° |
| 2026-05-04 13:10 | 16.19922 | 8.09783 | 39839 ft | 466 kts | 349° |
| 2026-05-04 13:10 | 16.26387 | 8.09164 | 39818 ft | 467 kts | 349° |
| 2026-05-04 13:11 | 16.32867 | 8.08542 | 39818 ft | 468 kts | 349° |
| 2026-05-04 13:11 | 16.39306 | 8.07925 | 39818 ft | 468 kts | 349° |
| 2026-05-04 13:12 | 16.45784 | 8.07303 | 39818 ft | 468 kts | 349° |
| 2026-05-04 13:12 | 16.52269 | 8.06680 | 39816 ft | 468 kts | 349° |
| 2026-05-04 13:13 | 16.58743 | 8.06059 | 39813 ft | 466 kts | 348° |
| 2026-05-04 13:13 | 16.65185 | 8.05441 | 39812 ft | 463 kts | 348° |
| 2026-05-04 13:14 | 16.71599 | 8.04823 | 39811 ft | 463 kts | 348° |
| 2026-05-04 13:14 | 16.78017 | 8.04203 | 39810 ft | 463 kts | 348° |
| 2026-05-04 13:15 | 16.84437 | 8.03584 | 39807 ft | 463 kts | 348° |
| 2026-05-04 13:15 | 16.87645 | 8.03275 | 39936 ft | 463 kts | 348° |
| 2026-05-04 13:15 | 16.90858 | 8.02965 | 39948 ft | 463 kts | 349° |
| 2026-05-04 13:16 | 16.97255 | 8.02349 | 39939 ft | 461 kts | 349° |
| 2026-05-04 13:16 | 17.03643 | 8.01788 | 39911 ft | 461 kts | 350° |
| 2026-05-04 13:17 | 17.10036 | 8.01294 | 39894 ft | 461 kts | 350° |
| 2026-05-04 13:17 | 17.16433 | 8.00797 | 39867 ft | 461 kts | 350° |
| 2026-05-04 13:18 | 17.22829 | 8.00288 | 39842 ft | 461 kts | 350° |
| 2026-05-04 13:18 | 17.29233 | 7.99771 | 39821 ft | 463 kts | 349° |
| 2026-05-04 13:19 | 17.34580 | 7.99338 | 39806 ft | 464 kts | 349° |
| 2026-05-04 13:19 | 17.41026 | 7.98818 | 39802 ft | 465 kts | 349° |
| 2026-05-04 13:20 | 17.47469 | 7.98300 | 39801 ft | 464 kts | 349° |
| 2026-05-04 13:20 | 17.53913 | 7.97779 | 39803 ft | 465 kts | 349° |
| 2026-05-04 13:21 | 17.60363 | 7.97257 | 39800 ft | 465 kts | 349° |
| 2026-05-04 13:21 | 17.66842 | 7.96731 | 39794 ft | 468 kts | 349° |
| 2026-05-04 13:22 | 17.73345 | 7.96204 | 39789 ft | 469 kts | 349° |
| 2026-05-04 13:22 | 17.79852 | 7.95678 | 39789 ft | 469 kts | 349° |
| 2026-05-04 13:23 | 17.86356 | 7.95152 | 39790 ft | 469 kts | 349° |
| 2026-05-04 13:23 | 17.92808 | 7.94629 | 39789 ft | 469 kts | 349° |
| 2026-05-04 13:24 | 17.99315 | 7.94101 | 39793 ft | 469 kts | 349° |
| 2026-05-04 13:24 | 18.05828 | 7.93571 | 39792 ft | 469 kts | 349° |
| 2026-05-04 13:25 | 18.15580 | 7.92778 | 39787 ft | 469 kts | 349° |
| 2026-05-04 13:25 | 18.22084 | 7.92248 | 39786 ft | 469 kts | 349° |
| 2026-05-04 13:26 | 18.28586 | 7.91718 | 39799 ft | 469 kts | 348° |
| 2026-05-04 13:26 | 18.35084 | 7.91190 | 39791 ft | 468 kts | 348° |
| 2026-05-04 13:27 | 18.41537 | 7.90664 | 39788 ft | 468 kts | 348° |
| 2026-05-04 13:27 | 18.48029 | 7.90134 | 39793 ft | 468 kts | 348° |
| 2026-05-04 13:28 | 18.54528 | 7.89602 | 39794 ft | 468 kts | 348° |
| 2026-05-04 13:28 | 18.61021 | 7.89070 | 39792 ft | 468 kts | 348° |
| 2026-05-04 13:29 | 18.67510 | 7.88539 | 39784 ft | 468 kts | 348° |
| 2026-05-04 13:29 | 18.74000 | 7.88008 | 39784 ft | 468 kts | 348° |
| 2026-05-04 13:30 | 18.80486 | 7.87476 | 39797 ft | 467 kts | 348° |
| 2026-05-04 13:30 | 18.86975 | 7.86944 | 39790 ft | 467 kts | 348° |
| 2026-05-04 13:31 | 18.93461 | 7.86412 | 39782 ft | 467 kts | 348° |
| 2026-05-04 13:31 | 18.99946 | 7.85878 | 39795 ft | 467 kts | 348° |
| 2026-05-04 13:32 | 19.06434 | 7.85345 | 39792 ft | 468 kts | 348° |
| 2026-05-04 13:32 | 19.12927 | 7.84811 | 39803 ft | 468 kts | 348° |
| 2026-05-04 13:33 | 19.19416 | 7.84276 | 39792 ft | 468 kts | 348° |
| 2026-05-04 13:33 | 19.25904 | 7.83741 | 39799 ft | 468 kts | 348° |
| 2026-05-04 13:34 | 19.32394 | 7.83206 | 39797 ft | 468 kts | 348° |
| 2026-05-04 13:34 | 19.38855 | 7.82672 | 39796 ft | 468 kts | 348° |
| 2026-05-04 13:35 | 19.48603 | 7.81866 | 39799 ft | 469 kts | 348° |
| 2026-05-04 13:36 | 19.55111 | 7.81341 | 39800 ft | 469 kts | 348° |
| 2026-05-04 13:36 | 19.61614 | 7.80826 | 39800 ft | 469 kts | 348° |
| 2026-05-04 13:37 | 19.68119 | 7.80311 | 39800 ft | 468 kts | 348° |
| 2026-05-04 13:37 | 19.74609 | 7.79796 | 39802 ft | 468 kts | 348° |
| 2026-05-04 13:38 | 19.81097 | 7.79280 | 39801 ft | 468 kts | 348° |
| 2026-05-04 13:38 | 19.87587 | 7.78761 | 39802 ft | 468 kts | 348° |
| 2026-05-04 13:39 | 19.94079 | 7.78243 | 39805 ft | 468 kts | 348° |
| 2026-05-04 13:39 | 20.00570 | 7.77726 | 39803 ft | 466 kts | 348° |
| 2026-05-04 13:40 | 20.06999 | 7.77215 | 39805 ft | 462 kts | 348° |
| 2026-05-04 13:40 | 20.13406 | 7.76702 | 39806 ft | 461 kts | 348° |
| 2026-05-04 13:41 | 20.19814 | 7.76187 | 39808 ft | 462 kts | 348° |
| 2026-05-04 13:41 | 20.26181 | 7.75676 | 39806 ft | 462 kts | 348° |
| 2026-05-04 13:42 | 20.35790 | 7.74906 | 39809 ft | 461 kts | 348° |
| 2026-05-04 13:42 | 20.42179 | 7.74394 | 39803 ft | 460 kts | 348° |
| 2026-05-04 13:43 | 20.48566 | 7.73880 | 39809 ft | 460 kts | 348° |
| 2026-05-04 13:43 | 20.54956 | 7.73365 | 39801 ft | 461 kts | 348° |
| 2026-05-04 13:44 | 20.61343 | 7.72851 | 39805 ft | 460 kts | 348° |
| 2026-05-04 13:44 | 20.67731 | 7.72338 | 39805 ft | 460 kts | 348° |
| 2026-05-04 13:45 | 20.74120 | 7.71822 | 39802 ft | 461 kts | 348° |
| 2026-05-04 13:45 | 20.80512 | 7.71307 | 39808 ft | 461 kts | 348° |
| 2026-05-04 13:46 | 20.86905 | 7.70791 | 39814 ft | 461 kts | 348° |
| 2026-05-04 13:46 | 20.93299 | 7.70274 | 39800 ft | 461 kts | 348° |
| 2026-05-04 13:47 | 20.99685 | 7.69714 | 39810 ft | 458 kts | 346° |
| 2026-05-04 13:47 | 21.05975 | 7.68830 | 39809 ft | 454 kts | 345° |
| 2026-05-04 13:48 | 21.12229 | 7.67870 | 39813 ft | 454 kts | 345° |
| 2026-05-04 13:48 | 21.18497 | 7.66953 | 39812 ft | 454 kts | 345° |
| 2026-05-04 13:49 | 21.24770 | 7.66068 | 39818 ft | 455 kts | 345° |
| 2026-05-04 13:49 | 21.31046 | 7.65192 | 39818 ft | 455 kts | 345° |
| 2026-05-04 13:50 | 21.37320 | 7.64314 | 39818 ft | 455 kts | 345° |
| 2026-05-04 13:50 | 21.43596 | 7.63434 | 39817 ft | 455 kts | 345° |
| 2026-05-04 13:51 | 21.49829 | 7.62559 | 39818 ft | 455 kts | 345° |
| 2026-05-04 13:51 | 21.56102 | 7.61676 | 39818 ft | 455 kts | 345° |
| 2026-05-04 13:52 | 21.65510 | 7.60353 | 39822 ft | 454 kts | 345° |
| 2026-05-04 13:53 | 21.71768 | 7.59472 | 39823 ft | 453 kts | 345° |
| 2026-05-04 13:53 | 21.78012 | 7.58591 | 39826 ft | 453 kts | 345° |
| 2026-05-04 13:54 | 21.87385 | 7.57266 | 39828 ft | 453 kts | 345° |
| 2026-05-04 13:55 | 21.96757 | 7.55941 | 39841 ft | 453 kts | 345° |
| 2026-05-04 13:55 | 22.06111 | 7.54619 | 39836 ft | 451 kts | 345° |
| 2026-05-04 13:56 | 22.12339 | 7.53736 | 39827 ft | 451 kts | 345° |
| 2026-05-04 13:57 | 22.21679 | 7.52410 | 39835 ft | 451 kts | 345° |
| 2026-05-04 13:58 | 22.34133 | 7.50641 | 39843 ft | 451 kts | 345° |
| 2026-05-04 13:58 | 22.43408 | 7.49321 | 39845 ft | 450 kts | 345° |
| 2026-05-04 13:59 | 22.49615 | 7.48436 | 39846 ft | 450 kts | 345° |
| 2026-05-04 14:00 | 22.58929 | 7.47107 | 39850 ft | 450 kts | 345° |
| 2026-05-04 14:00 | 22.68229 | 7.45780 | 39856 ft | 449 kts | 345° |
| 2026-05-04 14:01 | 22.74417 | 7.44895 | 39854 ft | 448 kts | 345° |
| 2026-05-04 14:02 | 22.83703 | 7.43565 | 39856 ft | 448 kts | 345° |
| 2026-05-04 14:02 | 22.89847 | 7.42685 | 39856 ft | 448 kts | 345° |
| 2026-05-04 14:03 | 22.96032 | 7.41797 | 39867 ft | 448 kts | 345° |
| 2026-05-04 14:03 | 23.02202 | 7.40912 | 39863 ft | 447 kts | 345° |
| 2026-05-04 14:04 | 23.11438 | 7.39584 | 39866 ft | 446 kts | 345° |
| 2026-05-04 14:04 | 23.17597 | 7.38697 | 39866 ft | 446 kts | 345° |
| 2026-05-04 14:05 | 23.26833 | 7.37366 | 39879 ft | 446 kts | 345° |
| 2026-05-04 14:06 | 23.32986 | 7.36479 | 39881 ft | 446 kts | 345° |
| 2026-05-04 14:06 | 23.39133 | 7.35591 | 39882 ft | 445 kts | 345° |
| 2026-05-04 14:07 | 23.45244 | 7.34708 | 39885 ft | 445 kts | 345° |
| 2026-05-04 14:07 | 23.51385 | 7.33819 | 39886 ft | 445 kts | 345° |
| 2026-05-04 14:08 | 23.57567 | 7.33086 | 39887 ft | 448 kts | 348° |
| 2026-05-04 14:08 | 23.63765 | 7.32488 | 39892 ft | 446 kts | 348° |
| 2026-05-04 14:09 | 23.73020 | 7.31559 | 39889 ft | 445 kts | 347° |
| 2026-05-04 14:10 | 23.82259 | 7.30582 | 39891 ft | 445 kts | 347° |
| 2026-05-04 14:10 | 23.88416 | 7.29927 | 39892 ft | 445 kts | 347° |
| 2026-05-04 14:11 | 23.93539 | 7.29383 | 39895 ft | 444 kts | 347° |
| 2026-05-04 14:11 | 24.02749 | 7.28408 | 39898 ft | 443 kts | 347° |
| 2026-05-04 14:12 | 24.08886 | 7.27755 | 39882 ft | 443 kts | 347° |
| 2026-05-04 14:13 | 24.18090 | 7.26776 | 39894 ft | 443 kts | 347° |
| 2026-05-04 14:13 | 24.24225 | 7.26122 | 39884 ft | 443 kts | 347° |
| 2026-05-04 14:14 | 24.30347 | 7.25472 | 39876 ft | 442 kts | 347° |
| 2026-05-04 14:14 | 24.39516 | 7.24492 | 39880 ft | 441 kts | 347° |
| 2026-05-04 14:15 | 24.51749 | 7.23183 | 39872 ft | 442 kts | 347° |
| 2026-05-04 14:16 | 24.60923 | 7.22201 | 39882 ft | 442 kts | 347° |
| 2026-05-04 14:17 | 24.70095 | 7.21218 | 39877 ft | 441 kts | 347° |
| 2026-05-04 14:18 | 24.79268 | 7.20233 | 39874 ft | 442 kts | 347° |
| 2026-05-04 14:19 | 24.91490 | 7.18919 | 39879 ft | 440 kts | 347° |
| 2026-05-04 14:19 | 24.97578 | 7.18264 | 39891 ft | 440 kts | 347° |
| 2026-05-04 14:20 | 25.03663 | 7.17610 | 39886 ft | 440 kts | 347° |
| 2026-05-04 14:20 | 25.09754 | 7.16954 | 39889 ft | 440 kts | 347° |
| 2026-05-04 14:21 | 25.18887 | 7.15970 | 39896 ft | 439 kts | 347° |
| 2026-05-04 14:21 | 25.24955 | 7.15317 | 39894 ft | 438 kts | 347° |
| 2026-05-04 14:22 | 25.30978 | 7.14666 | 39897 ft | 438 kts | 347° |
| 2026-05-04 14:22 | 25.37038 | 7.14011 | 39892 ft | 438 kts | 347° |
| 2026-05-04 14:23 | 25.46130 | 7.13026 | 39888 ft | 438 kts | 347° |
| 2026-05-04 14:24 | 25.52191 | 7.12370 | 39894 ft | 437 kts | 347° |
| 2026-05-04 14:24 | 25.58244 | 7.11715 | 39892 ft | 436 kts | 347° |
| 2026-05-04 14:25 | 25.64290 | 7.11059 | 39877 ft | 436 kts | 347° |
| 2026-05-04 14:25 | 25.73360 | 7.10073 | 39883 ft | 436 kts | 347° |
| 2026-05-04 14:26 | 25.79403 | 7.09415 | 39877 ft | 436 kts | 347° |
| 2026-05-04 14:26 | 25.85438 | 7.08757 | 39863 ft | 436 kts | 347° |
| 2026-05-04 14:27 | 25.91470 | 7.08101 | 39883 ft | 436 kts | 346° |
| 2026-05-04 14:27 | 25.97499 | 7.07444 | 39853 ft | 435 kts | 347° |
| 2026-05-04 14:28 | 26.03486 | 7.06792 | 39853 ft | 434 kts | 347° |
| 2026-05-04 14:28 | 26.09495 | 7.06150 | 39864 ft | 434 kts | 347° |
| 2026-05-04 14:29 | 26.21492 | 7.04865 | 39837 ft | 434 kts | 347° |
| 2026-05-04 14:30 | 26.27501 | 7.04218 | 39840 ft | 434 kts | 347° |
| 2026-05-04 14:31 | 26.36506 | 7.03250 | 39835 ft | 434 kts | 347° |
| 2026-05-04 14:32 | 26.48512 | 7.01959 | 39833 ft | 432 kts | 347° |
| 2026-05-04 14:32 | 26.54498 | 7.01313 | 39835 ft | 432 kts | 347° |
| 2026-05-04 14:33 | 26.60485 | 7.00668 | 39841 ft | 432 kts | 347° |
| 2026-05-04 14:33 | 26.66480 | 7.00017 | 39842 ft | 433 kts | 346° |
| 2026-05-04 14:34 | 26.72478 | 6.99366 | 39841 ft | 433 kts | 346° |
| 2026-05-04 14:34 | 26.78470 | 6.98718 | 39837 ft | 432 kts | 346° |
| 2026-05-04 14:35 | 26.84406 | 6.98075 | 39842 ft | 431 kts | 346° |
| 2026-05-04 14:35 | 26.90380 | 6.97429 | 39840 ft | 431 kts | 346° |
| 2026-05-04 14:36 | 26.96342 | 6.96779 | 39852 ft | 430 kts | 346° |
| 2026-05-04 14:36 | 27.02308 | 6.96129 | 39859 ft | 431 kts | 346° |
| 2026-05-04 14:37 | 27.08262 | 6.95480 | 39851 ft | 430 kts | 346° |
| 2026-05-04 14:37 | 27.14215 | 6.94831 | 39852 ft | 429 kts | 346° |
| 2026-05-04 14:38 | 27.20161 | 6.94181 | 39851 ft | 429 kts | 346° |
| 2026-05-04 14:38 | 27.26110 | 6.93530 | 39852 ft | 430 kts | 346° |
| 2026-05-04 14:39 | 27.32061 | 6.92879 | 39866 ft | 430 kts | 346° |
| 2026-05-04 14:39 | 27.37972 | 6.92232 | 39856 ft | 429 kts | 346° |
| 2026-05-04 14:40 | 27.46899 | 6.91253 | 39858 ft | 429 kts | 346° |
| 2026-05-04 14:40 | 27.52844 | 6.90600 | 39861 ft | 429 kts | 346° |
| 2026-05-04 14:41 | 27.58789 | 6.89947 | 39864 ft | 429 kts | 346° |
| 2026-05-04 14:42 | 27.70676 | 6.88638 | 39864 ft | 429 kts | 346° |
| 2026-05-04 14:42 | 27.76625 | 6.87981 | 39863 ft | 429 kts | 346° |
| 2026-05-04 14:43 | 27.82572 | 6.87324 | 39865 ft | 429 kts | 346° |
| 2026-05-04 14:43 | 27.87514 | 6.86778 | 39864 ft | 429 kts | 346° |
| 2026-05-04 14:44 | 27.94470 | 6.86008 | 39873 ft | 430 kts | 345° |
| 2026-05-04 14:44 | 28.00437 | 6.85346 | 39862 ft | 431 kts | 345° |
| 2026-05-04 14:45 | 28.06407 | 6.84684 | 39875 ft | 431 kts | 345° |
| 2026-05-04 14:45 | 28.12382 | 6.84039 | 39871 ft | 433 kts | 347° |
| 2026-05-04 14:46 | 28.18408 | 6.83853 | 39878 ft | 437 kts | 350° |
| 2026-05-04 14:46 | 28.24505 | 6.83780 | 39878 ft | 439 kts | 350° |
| 2026-05-04 14:47 | 28.30631 | 6.83726 | 39877 ft | 441 kts | 350° |
| 2026-05-04 14:47 | 28.36773 | 6.83672 | 39878 ft | 441 kts | 350° |
| 2026-05-04 14:48 | 28.42910 | 6.83612 | 39883 ft | 441 kts | 350° |
| 2026-05-04 14:48 | 28.49048 | 6.83548 | 39883 ft | 441 kts | 350° |
| 2026-05-04 14:49 | 28.55188 | 6.83484 | 39886 ft | 442 kts | 350° |
| 2026-05-04 14:49 | 28.61338 | 6.83419 | 39886 ft | 442 kts | 350° |
| 2026-05-04 14:50 | 28.67493 | 6.83355 | 39889 ft | 442 kts | 350° |
| 2026-05-04 14:50 | 28.73651 | 6.83292 | 39892 ft | 442 kts | 350° |
| 2026-05-04 14:51 | 28.79766 | 6.83228 | 39908 ft | 442 kts | 350° |
| 2026-05-04 14:51 | 28.85976 | 6.83161 | 39898 ft | 444 kts | 350° |
| 2026-05-04 14:52 | 28.92157 | 6.83097 | 39900 ft | 444 kts | 350° |
| 2026-05-04 14:52 | 28.98301 | 6.83034 | 39898 ft | 444 kts | 350° |
| 2026-05-04 14:53 | 29.04487 | 6.82969 | 39897 ft | 444 kts | 350° |
| 2026-05-04 14:53 | 29.10677 | 6.82903 | 39909 ft | 445 kts | 351° |
| 2026-05-04 14:54 | 29.16889 | 6.82836 | 39905 ft | 447 kts | 351° |
| 2026-05-04 14:54 | 29.23108 | 6.82773 | 39908 ft | 447 kts | 351° |
| 2026-05-04 14:55 | 29.29332 | 6.82707 | 39907 ft | 447 kts | 351° |
| 2026-05-04 14:55 | 29.35554 | 6.82641 | 39910 ft | 447 kts | 351° |
| 2026-05-04 14:56 | 29.41785 | 6.82574 | 39902 ft | 448 kts | 351° |
| 2026-05-04 14:56 | 29.48030 | 6.82509 | 39916 ft | 449 kts | 351° |
| 2026-05-04 14:57 | 29.54280 | 6.82444 | 39919 ft | 449 kts | 351° |
| 2026-05-04 14:57 | 29.60535 | 6.82379 | 39914 ft | 449 kts | 351° |
| 2026-05-04 14:58 | 29.66743 | 6.82313 | 39935 ft | 449 kts | 351° |
| 2026-05-04 14:58 | 29.71978 | 6.82257 | 39920 ft | 449 kts | 351° |
| 2026-05-04 14:59 | 29.79232 | 6.82179 | 39923 ft | 449 kts | 351° |
| 2026-05-04 15:00 | 29.88603 | 6.82078 | 39926 ft | 449 kts | 351° |
| 2026-05-04 15:00 | 29.94849 | 6.82012 | 39954 ft | 449 kts | 351° |
| 2026-05-04 15:01 | 30.04211 | 6.81912 | 39929 ft | 449 kts | 351° |
| 2026-05-04 15:01 | 30.09401 | 6.81857 | 39929 ft | 449 kts | 351° |
| 2026-05-04 15:02 | 30.15646 | 6.81789 | 39932 ft | 449 kts | 351° |
| 2026-05-04 15:02 | 30.21894 | 6.81722 | 39932 ft | 449 kts | 351° |
| 2026-05-04 15:03 | 30.28146 | 6.81655 | 39936 ft | 450 kts | 351° |
| 2026-05-04 15:03 | 30.34409 | 6.81587 | 39938 ft | 450 kts | 351° |
| 2026-05-04 15:04 | 30.40673 | 6.81520 | 39936 ft | 450 kts | 351° |
| 2026-05-04 15:04 | 30.46943 | 6.81452 | 39939 ft | 450 kts | 351° |
| 2026-05-04 15:05 | 30.53172 | 6.81385 | 39941 ft | 450 kts | 351° |
| 2026-05-04 15:05 | 30.59436 | 6.81318 | 39944 ft | 450 kts | 351° |
| 2026-05-04 15:06 | 30.65702 | 6.81250 | 39944 ft | 450 kts | 351° |
| 2026-05-04 15:07 | 30.75103 | 6.81148 | 39944 ft | 450 kts | 351° |
| 2026-05-04 15:07 | 30.81373 | 6.81080 | 39950 ft | 451 kts | 351° |
| 2026-05-04 15:08 | 30.87661 | 6.81011 | 39944 ft | 452 kts | 351° |
| 2026-05-04 15:08 | 30.93945 | 6.80943 | 39950 ft | 452 kts | 351° |
| 2026-05-04 15:09 | 31.00232 | 6.80874 | 39949 ft | 452 kts | 351° |
| 2026-05-04 15:09 | 31.06473 | 6.80806 | 39972 ft | 452 kts | 351° |
| 2026-05-04 15:10 | 31.15916 | 6.80702 | 39950 ft | 453 kts | 352° |
| 2026-05-04 15:11 | 31.25373 | 6.80599 | 39957 ft | 453 kts | 352° |
| 2026-05-04 15:11 | 31.31677 | 6.80529 | 39957 ft | 453 kts | 352° |
| 2026-05-04 15:12 | 31.37991 | 6.80461 | 39965 ft | 453 kts | 352° |
| 2026-05-04 15:12 | 31.44297 | 6.80392 | 39961 ft | 453 kts | 352° |
| 2026-05-04 15:13 | 31.50609 | 6.80322 | 39951 ft | 453 kts | 352° |
| 2026-05-04 15:13 | 31.56879 | 6.80252 | 39963 ft | 454 kts | 352° |
| 2026-05-04 15:14 | 31.63187 | 6.80182 | 39976 ft | 454 kts | 352° |
| 2026-05-04 15:14 | 31.69502 | 6.80113 | 39962 ft | 454 kts | 352° |
| 2026-05-04 15:15 | 31.75815 | 6.80042 | 39964 ft | 454 kts | 352° |
| 2026-05-04 15:15 | 31.82131 | 6.79973 | 39961 ft | 454 kts | 352° |
| 2026-05-04 15:16 | 31.91608 | 6.79868 | 39978 ft | 454 kts | 352° |
| 2026-05-04 15:17 | 32.01093 | 6.79761 | 39968 ft | 455 kts | 352° |
| 2026-05-04 15:17 | 32.10586 | 6.79656 | 39968 ft | 455 kts | 352° |
| 2026-05-04 15:18 | 32.16870 | 6.79585 | 39992 ft | 455 kts | 352° |
| 2026-05-04 15:19 | 32.26373 | 6.79479 | 39973 ft | 455 kts | 352° |
| 2026-05-04 15:19 | 32.35871 | 6.79373 | 39967 ft | 455 kts | 352° |
| 2026-05-04 15:20 | 32.42204 | 6.79301 | 39965 ft | 455 kts | 352° |
| 2026-05-04 15:20 | 32.48542 | 6.79229 | 39972 ft | 455 kts | 352° |
| 2026-05-04 15:21 | 32.54875 | 6.79158 | 39982 ft | 455 kts | 352° |
| 2026-05-04 15:22 | 32.64380 | 6.79051 | 39970 ft | 455 kts | 352° |
| 2026-05-04 15:22 | 32.73841 | 6.78943 | 39979 ft | 455 kts | 352° |
| 2026-05-04 15:23 | 32.80182 | 6.78872 | 39979 ft | 456 kts | 352° |
| 2026-05-04 15:23 | 32.86526 | 6.78800 | 39980 ft | 456 kts | 352° |
| 2026-05-04 15:24 | 32.99212 | 6.78656 | 39994 ft | 456 kts | 352° |
| 2026-05-04 15:25 | 33.05550 | 6.78583 | 39982 ft | 456 kts | 352° |
| 2026-05-04 15:26 | 33.15069 | 6.78475 | 39984 ft | 456 kts | 352° |
| 2026-05-04 15:26 | 33.24585 | 6.78365 | 39997 ft | 456 kts | 352° |
| 2026-05-04 15:27 | 33.34104 | 6.78256 | 40011 ft | 456 kts | 352° |
| 2026-05-04 15:28 | 33.43623 | 6.78147 | 40021 ft | 456 kts | 352° |
| 2026-05-04 15:29 | 33.53136 | 6.78023 | 40025 ft | 455 kts | 351° |
| 2026-05-04 15:30 | 33.75147 | 6.76595 | 39989 ft | 454 kts | 349° |
| 2026-05-04 15:31 | 33.84608 | 6.76020 | 39988 ft | 454 kts | 350° |
| 2026-05-04 15:32 | 34.00383 | 6.75060 | 39987 ft | 454 kts | 350° |
| 2026-05-04 15:34 | 34.16164 | 6.74091 | 39985 ft | 454 kts | 350° |
| 2026-05-04 15:34 | 34.25640 | 6.73509 | 39985 ft | 455 kts | 350° |
| 2026-05-04 15:35 | 34.35119 | 6.72924 | 39991 ft | 455 kts | 350° |
| 2026-05-04 15:36 | 34.44612 | 6.72337 | 39990 ft | 456 kts | 350° |
| 2026-05-04 15:36 | 34.50941 | 6.71946 | 39990 ft | 455 kts | 350° |
| 2026-05-04 15:37 | 34.57272 | 6.71554 | 40002 ft | 455 kts | 350° |
| 2026-05-04 15:37 | 34.63604 | 6.71160 | 39995 ft | 456 kts | 350° |
| 2026-05-04 15:38 | 34.69940 | 6.70766 | 40008 ft | 456 kts | 350° |
| 2026-05-04 15:38 | 34.76277 | 6.70372 | 40016 ft | 456 kts | 350° |
| 2026-05-04 15:39 | 34.82613 | 6.69978 | 40015 ft | 456 kts | 350° |
| 2026-05-04 15:40 | 34.92088 | 6.69396 | 40021 ft | 457 kts | 350° |
| 2026-05-04 15:40 | 34.98435 | 6.69008 | 40032 ft | 457 kts | 350° |
| 2026-05-04 15:41 | 35.04782 | 6.68618 | 40039 ft | 457 kts | 350° |
| 2026-05-04 15:41 | 35.11136 | 6.68226 | 40043 ft | 457 kts | 350° |
| 2026-05-04 15:42 | 35.17495 | 6.67833 | 40034 ft | 458 kts | 350° |
| 2026-05-04 15:42 | 35.23862 | 6.67444 | 40037 ft | 458 kts | 350° |
| 2026-05-04 15:43 | 35.30219 | 6.67050 | 40032 ft | 457 kts | 350° |
| 2026-05-04 15:43 | 35.36580 | 6.66652 | 40039 ft | 458 kts | 350° |
| 2026-05-04 15:44 | 35.42950 | 6.66255 | 40018 ft | 458 kts | 350° |
| 2026-05-04 15:44 | 35.49317 | 6.65861 | 40012 ft | 458 kts | 350° |
| 2026-05-04 15:45 | 35.55617 | 6.65470 | 40013 ft | 458 kts | 350° |
| 2026-05-04 15:45 | 35.61983 | 6.65074 | 40003 ft | 457 kts | 350° |
| 2026-05-04 15:46 | 35.68340 | 6.64678 | 40003 ft | 457 kts | 350° |
| 2026-05-04 15:46 | 35.74689 | 6.64280 | 39990 ft | 457 kts | 350° |
| 2026-05-04 15:47 | 35.81040 | 6.63881 | 39994 ft | 457 kts | 350° |
| 2026-05-04 15:47 | 35.87391 | 6.63482 | 39991 ft | 457 kts | 350° |
| 2026-05-04 15:48 | 35.93743 | 6.63083 | 39996 ft | 457 kts | 350° |
| 2026-05-04 15:48 | 36.03268 | 6.62482 | 40027 ft | 457 kts | 350° |
| 2026-05-04 15:49 | 36.09618 | 6.62081 | 40046 ft | 457 kts | 350° |
| 2026-05-04 15:49 | 36.15977 | 6.61678 | 40063 ft | 458 kts | 350° |
| 2026-05-04 15:50 | 36.22291 | 6.61278 | 40075 ft | 458 kts | 350° |
| 2026-05-04 15:50 | 36.28677 | 6.60966 | 40073 ft | 462 kts | 355° |
| 2026-05-04 15:51 | 36.35127 | 6.61678 | 40080 ft | 467 kts | 359° |
| 2026-05-04 15:51 | 36.41593 | 6.62644 | 40063 ft | 468 kts | 0° |
| 2026-05-04 15:52 | 36.48063 | 6.63656 | 40040 ft | 469 kts | 0° |
| 2026-05-04 15:52 | 36.54531 | 6.64654 | 40018 ft | 468 kts | 0° |
| 2026-05-04 15:53 | 36.61004 | 6.65646 | 39985 ft | 468 kts | 0° |
| 2026-05-04 15:53 | 36.66377 | 6.66468 | 39981 ft | 468 kts | 0° |
| 2026-05-04 15:54 | 36.73893 | 6.67618 | 39981 ft | 468 kts | 0° |
| 2026-05-04 15:54 | 36.80359 | 6.68611 | 39987 ft | 468 kts | 360° |
| 2026-05-04 15:55 | 36.86821 | 6.69602 | 39986 ft | 468 kts | 360° |
| 2026-05-04 15:55 | 36.92232 | 6.70436 | 39985 ft | 468 kts | 360° |
| 2026-05-04 15:56 | 36.98692 | 6.71424 | 39986 ft | 467 kts | 360° |
| 2026-05-04 15:56 | 37.05149 | 6.72419 | 40007 ft | 468 kts | 360° |
| 2026-05-04 15:57 | 37.11565 | 6.73414 | 39990 ft | 468 kts | 360° |
| 2026-05-04 15:57 | 37.18026 | 6.74416 | 39993 ft | 468 kts | 360° |
| 2026-05-04 15:58 | 37.24488 | 6.75419 | 39998 ft | 468 kts | 360° |
| 2026-05-04 15:58 | 37.30944 | 6.76422 | 40005 ft | 468 kts | 360° |
| 2026-05-04 15:59 | 37.37409 | 6.77428 | 40001 ft | 468 kts | 360° |
| 2026-05-04 15:59 | 37.43877 | 6.78436 | 40004 ft | 468 kts | 360° |
| 2026-05-04 16:00 | 37.50349 | 6.79448 | 40007 ft | 468 kts | 360° |
| 2026-05-04 16:00 | 37.56819 | 6.80460 | 40011 ft | 469 kts | 360° |
| 2026-05-04 16:01 | 37.63297 | 6.81475 | 40012 ft | 469 kts | 360° |
| 2026-05-04 16:01 | 37.69775 | 6.82493 | 40013 ft | 469 kts | 360° |
| 2026-05-04 16:02 | 37.76257 | 6.83512 | 40032 ft | 469 kts | 360° |
| 2026-05-04 16:03 | 37.85989 | 6.85046 | 40017 ft | 470 kts | 360° |
| 2026-05-04 16:03 | 37.92468 | 6.86071 | 40018 ft | 469 kts | 360° |
| 2026-05-04 16:04 | 37.98942 | 6.87096 | 40017 ft | 469 kts | 360° |
| 2026-05-04 16:04 | 38.08668 | 6.88637 | 40028 ft | 470 kts | 360° |
| 2026-05-04 16:05 | 38.15113 | 6.89662 | 40022 ft | 470 kts | 360° |
| 2026-05-04 16:06 | 38.24853 | 6.91214 | 40024 ft | 470 kts | 360° |
| 2026-05-04 16:07 | 38.37832 | 6.93289 | 40027 ft | 470 kts | 360° |
| 2026-05-04 16:08 | 38.50812 | 6.95371 | 40018 ft | 470 kts | 360° |
| 2026-05-04 16:09 | 38.67006 | 6.97980 | 40026 ft | 469 kts | 360° |
| 2026-05-04 16:10 | 38.79947 | 7.00073 | 40021 ft | 468 kts | 0° |
| 2026-05-04 16:11 | 38.92829 | 7.02163 | 40033 ft | 468 kts | 0° |
| 2026-05-04 16:12 | 39.12165 | 7.04851 | 40018 ft | 464 kts | 358° |
| 2026-05-04 16:13 | 39.25042 | 7.06326 | 40012 ft | 464 kts | 358° |
| 2026-05-04 16:14 | 39.37911 | 7.07877 | 40023 ft | 464 kts | 358° |
| 2026-05-04 16:16 | 39.54037 | 7.09827 | 40009 ft | 466 kts | 358° |
| 2026-05-04 16:17 | 39.70193 | 7.11787 | 39999 ft | 467 kts | 358° |
| 2026-05-04 16:18 | 39.83108 | 7.13363 | 40011 ft | 468 kts | 358° |
| 2026-05-04 16:19 | 39.99420 | 7.15359 | 39997 ft | 472 kts | 358° |
| 2026-05-04 16:20 | 40.15778 | 7.17374 | 40003 ft | 473 kts | 358° |
| 2026-05-04 16:22 | 40.32155 | 7.19549 | 39993 ft | 474 kts | 359° |
| 2026-05-04 16:23 | 40.51830 | 7.22252 | 39993 ft | 474 kts | 359° |
| 2026-05-04 16:25 | 40.71461 | 7.24946 | 39994 ft | 474 kts | 359° |
| 2026-05-04 16:26 | 40.94439 | 7.28121 | 39990 ft | 475 kts | 359° |
| 2026-05-04 16:28 | 41.10900 | 7.30409 | 39998 ft | 476 kts | 359° |
| 2026-05-04 16:29 | 41.33987 | 7.33638 | 40012 ft | 477 kts | 359° |
| 2026-05-04 16:31 | 41.50461 | 7.35955 | 40002 ft | 478 kts | 360° |
| 2026-05-04 16:32 | 41.70317 | 7.38765 | 40001 ft | 479 kts | 360° |
| 2026-05-04 16:33 | 41.83566 | 7.40650 | 40006 ft | 479 kts | 360° |
| 2026-05-04 16:34 | 41.93517 | 7.42070 | 40007 ft | 479 kts | 0° |
| 2026-05-04 16:35 | 42.13423 | 7.44926 | 40009 ft | 479 kts | 0° |
| 2026-05-04 16:36 | 42.23324 | 7.46353 | 40009 ft | 479 kts | 0° |
| 2026-05-04 16:37 | 42.33265 | 7.47791 | 40013 ft | 479 kts | 0° |
| 2026-05-04 16:38 | 42.46524 | 7.49714 | 40015 ft | 479 kts | 0° |
| 2026-05-04 16:39 | 42.63100 | 7.52129 | 40018 ft | 479 kts | 0° |
| 2026-05-04 16:40 | 42.76358 | 7.54072 | 40018 ft | 479 kts | 0° |
| 2026-05-04 16:41 | 42.92940 | 7.56513 | 40018 ft | 480 kts | 0° |
| 2026-05-04 16:43 | 43.09501 | 7.58965 | 40013 ft | 480 kts | 0° |
| 2026-05-04 16:43 | 43.19430 | 7.60957 | 40032 ft | 482 kts | 4° |
| 2026-05-04 16:45 | 43.39233 | 7.65676 | 40030 ft | 481 kts | 4° |
| 2026-05-04 16:46 | 43.54669 | 7.69213 | 40027 ft | 483 kts | 4° |
| 2026-05-04 16:47 | 43.67944 | 7.72276 | 40041 ft | 484 kts | 4° |
| 2026-05-04 16:48 | 43.81164 | 7.76061 | 40055 ft | 493 kts | 18° |
| 2026-05-04 16:49 | 43.87094 | 7.80964 | 40070 ft | 500 kts | 33° |
| 2026-05-04 16:49 | 43.92652 | 7.86801 | 40082 ft | 501 kts | 33° |
| 2026-05-04 16:50 | 43.98675 | 7.91309 | 40098 ft | 493 kts | 18° |
| 2026-05-04 16:50 | 44.05056 | 7.94718 | 40100 ft | 490 kts | 15° |
| 2026-05-04 16:51 | 44.14697 | 7.99487 | 40112 ft | 490 kts | 15° |
| 2026-05-04 16:52 | 44.27487 | 8.05877 | 40090 ft | 488 kts | 15° |
| 2026-05-04 16:53 | 44.37067 | 8.10710 | 40087 ft | 488 kts | 15° |
| 2026-05-04 16:54 | 44.49815 | 8.17179 | 40080 ft | 487 kts | 16° |
| 2026-05-04 16:55 | 44.68937 | 8.26925 | 40083 ft | 487 kts | 15° |
| 2026-05-04 16:56 | 44.84783 | 8.35058 | 40072 ft | 485 kts | 16° |
| 2026-05-04 16:57 | 44.94292 | 8.39960 | 40069 ft | 485 kts | 16° |
| 2026-05-04 16:58 | 45.07004 | 8.46541 | 40067 ft | 484 kts | 16° |
| 2026-05-04 17:00 | 45.25858 | 8.56360 | 40082 ft | 482 kts | 17° |
| 2026-05-04 17:01 | 45.41621 | 8.64621 | 40075 ft | 483 kts | 17° |
| 2026-05-04 17:02 | 45.54221 | 8.71261 | 40073 ft | 482 kts | 17° |
| 2026-05-04 17:03 | 45.63662 | 8.76257 | 40081 ft | 482 kts | 17° |
| 2026-05-04 17:03 | 45.73085 | 8.81262 | 40062 ft | 481 kts | 17° |
| 2026-05-04 17:04 | 45.85634 | 8.87954 | 40072 ft | 481 kts | 17° |
| 2026-05-04 17:05 | 45.98144 | 8.94659 | 40077 ft | 479 kts | 17° |
| 2026-05-04 17:06 | 46.07513 | 8.99702 | 40075 ft | 478 kts | 18° |
| 2026-05-04 17:07 | 46.15905 | 9.03595 | 40050 ft | 472 kts | 5° |
| 2026-05-04 17:07 | 46.23507 | 9.04028 | 40056 ft | 467 kts | 355° |
| 2026-05-04 17:08 | 46.33248 | 9.03595 | 40061 ft | 466 kts | 354° |
| 2026-05-04 17:09 | 46.39736 | 9.03268 | 40073 ft | 467 kts | 355° |
| 2026-05-04 17:09 | 46.46223 | 9.02971 | 40075 ft | 466 kts | 355° |
| 2026-05-04 17:10 | 46.62448 | 9.02269 | 40071 ft | 467 kts | 355° |
| 2026-05-04 17:11 | 46.68940 | 9.01988 | 40069 ft | 467 kts | 354° |
| 2026-05-04 17:12 | 46.78690 | 9.01558 | 40039 ft | 467 kts | 354° |
| 2026-05-04 17:13 | 46.94902 | 9.00841 | 40000 ft | 468 kts | 355° |
| 2026-05-04 17:14 | 47.07956 | 9.00264 | 39990 ft | 470 kts | 355° |
| 2026-05-04 17:15 | 47.17760 | 8.99826 | 39982 ft | 470 kts | 355° |
| 2026-05-04 17:16 | 47.30832 | 8.99242 | 39984 ft | 470 kts | 355° |
| 2026-05-04 17:17 | 47.43919 | 8.98655 | 39982 ft | 470 kts | 355° |
| 2026-05-04 17:18 | 47.57017 | 8.98065 | 39971 ft | 471 kts | 355° |
| 2026-05-04 17:19 | 47.70090 | 8.97471 | 39964 ft | 471 kts | 355° |
| 2026-05-04 17:20 | 47.83214 | 8.96873 | 39837 ft | 470 kts | 355° |
| 2026-05-04 17:20 | 47.89678 | 8.96581 | 39380 ft | 461 kts | 355° |
| 2026-05-04 17:20 | 47.92885 | 8.96434 | 39148 ft | 462 kts | 355° |
| 2026-05-04 17:21 | 47.99321 | 8.96136 | 38694 ft | 463 kts | 355° |
| 2026-05-04 17:21 | 48.05717 | 8.95842 | 37902 ft | 458 kts | 355° |
| 2026-05-04 17:22 | 48.08899 | 8.95695 | 37428 ft | 458 kts | 355° |
| 2026-05-04 17:22 | 48.12088 | 8.95547 | 36931 ft | 458 kts | 355° |
| 2026-05-04 17:23 | 48.21663 | 8.96124 | 35385 ft | 462 kts | 3° |
| 2026-05-04 17:23 | 48.24867 | 8.96589 | 34833 ft | 463 kts | 3° |
| 2026-05-04 17:23 | 48.31348 | 8.97556 | 33426 ft | 472 kts | 4° |
| 2026-05-04 17:24 | 48.34628 | 8.98052 | 32694 ft | 475 kts | 4° |
| 2026-05-04 17:24 | 48.44566 | 8.99563 | 30574 ft | 480 kts | 4° |
| 2026-05-04 17:25 | 48.47754 | 9.00052 | 30093 ft | 476 kts | 4° |
| 2026-05-04 17:25 | 48.53905 | 9.00993 | 29029 ft | 469 kts | 4° |
| 2026-05-04 17:26 | 48.60031 | 9.01929 | 28007 ft | 461 kts | 4° |
| 2026-05-04 17:26 | 48.69188 | 9.03768 | 26460 ft | 451 kts | 7° |
| 2026-05-04 17:27 | 48.75041 | 9.05234 | 25446 ft | 446 kts | 7° |
| 2026-05-04 17:27 | 48.80756 | 9.06623 | 24464 ft | 441 kts | 7° |
| 2026-05-04 17:28 | 48.86286 | 9.07955 | 23501 ft | 436 kts | 7° |
| 2026-05-04 17:29 | 48.94659 | 9.09459 | 22010 ft | 424 kts | 2° |
| 2026-05-04 17:29 | 49.03109 | 9.10573 | 20534 ft | 413 kts | 4° |
| 2026-05-04 17:30 | 49.11275 | 9.11717 | 19067 ft | 405 kts | 4° |
| 2026-05-04 17:31 | 49.16339 | 9.12437 | 18123 ft | 400 kts | 4° |
| 2026-05-04 17:31 | 49.24024 | 9.13537 | 16726 ft | 389 kts | 4° |
| 2026-05-04 17:32 | 49.29056 | 9.14412 | 15792 ft | 383 kts | 10° |
| 2026-05-04 17:33 | 49.36313 | 9.16958 | 14859 ft | 368 kts | 12° |
| 2026-05-04 17:33 | 49.38703 | 9.17809 | 14218 ft | 372 kts | 12° |
| 2026-05-04 17:34 | 49.45179 | 9.20111 | 12530 ft | 378 kts | 12° |
| 2026-05-04 17:34 | 49.47586 | 9.20967 | 11996 ft | 376 kts | 12° |
| 2026-05-04 17:35 | 49.54815 | 9.23539 | 10790 ft | 359 kts | 12° |
| 2026-05-04 17:35 | 49.59408 | 9.25183 | 10597 ft | 341 kts | 12° |
| 2026-05-04 17:35 | 49.61675 | 9.25992 | 10476 ft | 330 kts | 12° |
| 2026-05-04 17:36 | 49.63836 | 9.26769 | 10340 ft | 320 kts | 12° |
| 2026-05-04 17:36 | 49.65967 | 9.27535 | 10218 ft | 311 kts | 12° |
| 2026-05-04 17:36 | 49.68065 | 9.28288 | 10028 ft | 312 kts | 12° |
| 2026-05-04 17:36 | 49.70284 | 9.29063 | 9903 ft | 333 kts | 10° |
| 2026-05-04 17:37 | 49.72545 | 9.29217 | 9652 ft | 322 kts | 351° |
| 2026-05-04 17:37 | 49.74736 | 9.28586 | 9180 ft | 320 kts | 345° |
| 2026-05-04 17:37 | 49.76903 | 9.27778 | 8683 ft | 320 kts | 343° |
| 2026-05-04 17:37 | 49.79067 | 9.26938 | 8214 ft | 320 kts | 343° |
| 2026-05-04 17:38 | 49.81197 | 9.26096 | 8037 ft | 311 kts | 343° |
| 2026-05-04 17:38 | 49.83222 | 9.25288 | 8009 ft | 297 kts | 343° |
| 2026-05-04 17:38 | 49.85175 | 9.24512 | 7962 ft | 285 kts | 343° |
| 2026-05-04 17:38 | 49.87081 | 9.23764 | 7790 ft | 279 kts | 343° |
| 2026-05-04 17:39 | 49.90774 | 9.22288 | 7377 ft | 271 kts | 343° |
| 2026-05-04 17:39 | 49.92591 | 9.21544 | 7116 ft | 269 kts | 343° |
| 2026-05-04 17:39 | 49.94392 | 9.20805 | 6928 ft | 265 kts | 343° |
| 2026-05-04 17:40 | 49.96142 | 9.20084 | 6725 ft | 256 kts | 344° |
| 2026-05-04 17:40 | 49.97847 | 9.19374 | 6252 ft | 253 kts | 343° |
| 2026-05-04 17:40 | 49.99541 | 9.18654 | 5751 ft | 251 kts | 343° |
| 2026-05-04 17:40 | 50.01215 | 9.17926 | 5269 ft | 248 kts | 343° |
| 2026-05-04 17:41 | 50.02862 | 9.17193 | 4830 ft | 244 kts | 344° |
| 2026-05-04 17:41 | 50.04469 | 9.16454 | 4624 ft | 237 kts | 343° |
| 2026-05-04 17:41 | 50.06010 | 9.15640 | 4450 ft | 231 kts | 334° |
| 2026-05-04 17:41 | 50.07180 | 9.14002 | 4211 ft | 227 kts | 299° |
| 2026-05-04 17:42 | 50.07785 | 9.11771 | 4027 ft | 222 kts | 285° |
| 2026-05-04 17:42 | 50.08210 | 9.09455 | 4011 ft | 223 kts | 284° |
| 2026-05-04 17:42 | 50.08611 | 9.07120 | 4004 ft | 223 kts | 284° |
| 2026-05-04 17:42 | 50.09002 | 9.04786 | 4004 ft | 223 kts | 283° |
| 2026-05-04 17:43 | 50.09390 | 9.02452 | 4003 ft | 223 kts | 283° |
| 2026-05-04 17:43 | 50.09780 | 9.00115 | 4002 ft | 223 kts | 284° |
| 2026-05-04 17:43 | 50.10165 | 8.97777 | 4001 ft | 223 kts | 283° |
| 2026-05-04 17:43 | 50.10553 | 8.95435 | 4003 ft | 223 kts | 283° |
| 2026-05-04 17:44 | 50.10947 | 8.93096 | 4000 ft | 223 kts | 284° |
| 2026-05-04 17:44 | 50.11253 | 8.90749 | 3995 ft | 217 kts | 270° |
| 2026-05-04 17:44 | 50.11068 | 8.88510 | 4010 ft | 201 kts | 253° |
| 2026-05-04 17:44 | 50.10641 | 8.86548 | 4027 ft | 182 kts | 249° |
| 2026-05-04 17:45 | 50.10208 | 8.84734 | 3932 ft | 178 kts | 249° |
| 2026-05-04 17:45 | 50.09782 | 8.82927 | 3693 ft | 178 kts | 249° |
| 2026-05-04 17:45 | 50.09354 | 8.81123 | 3424 ft | 178 kts | 250° |
| 2026-05-04 17:45 | 50.08928 | 8.79327 | 3168 ft | 176 kts | 250° |
| 2026-05-04 17:46 | 50.08500 | 8.77530 | 2922 ft | 178 kts | 250° |
| 2026-05-04 17:46 | 50.08071 | 8.75725 | 2685 ft | 178 kts | 251° |
| 2026-05-04 17:46 | 50.07642 | 8.73920 | 2443 ft | 178 kts | 251° |
| 2026-05-04 17:46 | 50.07211 | 8.72112 | 2206 ft | 177 kts | 252° |
| 2026-05-04 17:47 | 50.06783 | 8.70313 | 1963 ft | 177 kts | 251° |
| 2026-05-04 17:47 | 50.06365 | 8.68559 | 1737 ft | 165 kts | 251° |
| 2026-05-04 17:47 | 50.05985 | 8.66966 | 1521 ft | 149 kts | 252° |
| 2026-05-04 17:47 | 50.05641 | 8.65521 | 1326 ft | 136 kts | 253° |
| 2026-05-04 17:48 | 50.05323 | 8.64181 | 1153 ft | 131 kts | 251° |
| 2026-05-04 17:48 | 50.05005 | 8.62846 | 976 ft | 132 kts | 253° |
| 2026-05-04 17:48 | 50.04794 | 8.61962 | 839 ft | 132 kts | 253° |
| 2026-05-04 17:48 | 50.04369 | 8.60183 | 624 ft | 131 kts | 254° |
| 2026-05-04 17:49 | 50.04055 | 8.58864 | 455 ft | 129 kts | 253° |
| 2026-05-04 17:49 | 50.03756 | 8.57603 | 371 ft | 109 kts | 250° |
| 2026-05-04 17:49 | 50.03553 | 8.56752 | 356 ft | 66 kts | 249° |
| 2026-05-04 17:49 | 50.03444 | 8.56261 | 362 ft | 32 kts | 259° |
| 2026-05-04 17:50 | 50.03444 | 8.56000 | 352 ft | 23 kts | 279° |
| 2026-05-04 17:50 | 50.03466 | 8.55800 | 357 ft | 13 kts | 279° |
| 2026-05-04 17:50 | 50.03473 | 8.55750 | 356 ft | 0 kts | 284° |
| 2026-05-04 17:50 | 50.03481 | 8.55731 | 357 ft | 5 kts | 308° |
| 2026-05-04 17:51 | 50.03530 | 8.55710 | 357 ft | 9 kts | 16° |
| 2026-05-04 17:51 | 50.03567 | 8.55787 | 360 ft | 9 kts | 68° |
| 2026-05-04 17:51 | 50.03591 | 8.55883 | 359 ft | 10 kts | 70° |
| 2026-05-04 17:51 | 50.03616 | 8.55989 | 360 ft | 11 kts | 70° |
| 2026-05-04 17:52 | 50.03643 | 8.56104 | 362 ft | 12 kts | 69° |
| 2026-05-04 17:52 | 50.03673 | 8.56228 | 362 ft | 13 kts | 69° |
| 2026-05-04 17:52 | 50.03710 | 8.56385 | 366 ft | 17 kts | 70° |
| 2026-05-04 17:52 | 50.03754 | 8.56569 | 363 ft | 19 kts | 69° |
| 2026-05-04 17:53 | 50.03802 | 8.56765 | 362 ft | 20 kts | 69° |
| 2026-05-04 17:53 | 50.03853 | 8.56974 | 366 ft | 21 kts | 69° |
| 2026-05-04 17:53 | 50.03901 | 8.57189 | 370 ft | 20 kts | 71° |
| 2026-05-04 17:53 | 50.03951 | 8.57392 | 370 ft | 20 kts | 69° |
| 2026-05-04 17:54 | 50.03999 | 8.57595 | 375 ft | 21 kts | 70° |
| 2026-05-04 17:54 | 50.04050 | 8.57810 | 371 ft | 22 kts | 69° |
| 2026-05-04 17:54 | 50.04101 | 8.58023 | 377 ft | 17 kts | 70° |
| 2026-05-04 17:54 | 50.04173 | 8.58159 | 374 ft | 16 kts | 27° |
| 2026-05-04 17:55 | 50.04225 | 8.58195 | 376 ft | 0 kts | 20° |
| 2026-05-04 17:55 | 50.04232 | 8.58199 | 370 ft | 2 kts | 18° |
| 2026-05-04 17:55 | 50.04250 | 8.58204 | 376 ft | 4 kts | 7° |
| 2026-05-04 17:56 | 50.04296 | 8.58194 | 371 ft | 10 kts | 346° |
| 2026-05-04 17:56 | 50.04365 | 8.58158 | 377 ft | 11 kts | 341° |
| 2026-05-04 17:56 | 50.04445 | 8.58112 | 373 ft | 14 kts | 339° |
| 2026-05-04 17:56 | 50.04542 | 8.58053 | 374 ft | 15 kts | 339° |
| 2026-05-04 17:57 | 50.04656 | 8.57990 | 369 ft | 20 kts | 339° |
| 2026-05-04 17:57 | 50.04761 | 8.57929 | 367 ft | 13 kts | 339° |
| 2026-05-04 17:57 | 50.04818 | 8.57890 | 369 ft | 8 kts | 327° |
| 2026-05-04 17:57 | 50.04869 | 8.57853 | 368 ft | 8 kts | 0° |
| 2026-05-04 17:58 | 50.04902 | 8.57866 | 370 ft | 5 kts | 17° |
| 2026-05-04 17:58 | 50.04915 | 8.57874 | 367 ft | 1 kts | 21° |
| 2026-05-04 17:58 | 50.04916 | 8.57875 | 368 ft | 0 kts | 21° |